sensor_id;sensor_type;location;lat;lon;timestamp;pressure;altitude;pressure_sealevel;temperature;humidity
9474;BME280;8865;47.636;7.692;2023-11-21T00:00:19;97815.56;;;9.94;100.00
9474;BME280;8865;47.636;7.692;2023-11-21T00:02:45;97822.59;;;9.94;100.00
9474;BME280;8865;47.636;7.692;2023-11-21T00:05:13;97812.28;;;9.92;100.00
9474;BME280;8865;47.636;7.692;2023-11-21T00:07:43;97822.31;;;9.87;100.00
9474;BME280;8865;47.636;7.692;2023-11-21T00:10:10;97821.91;;;9.82;100.00
9474;BME280;8865;47.636;7.692;2023-11-21T00:12:37;97820.38;;;9.79;100.00
9474;BME280;8865;47.636;7.692;2023-11-21T00:15:04;97818.63;;;9.80;100.00
9474;BME280;8865;47.636;7.692;2023-11-21T00:17:37;97812.00;;;9.76;100.00
9474;BME280;8865;47.636;7.692;2023-11-21T00:20:05;97810.06;;;9.78;100.00
9474;BME280;8865;47.636;7.692;2023-11-21T00:22:34;97811.19;;;9.75;100.00
9474;BME280;8865;47.636;7.692;2023-11-21T00:25:00;97807.72;;;9.75;100.00
9474;BME280;8865;47.636;7.692;2023-11-21T00:27:26;97806.78;;;9.76;100.00
9474;BME280;8865;47.636;7.692;2023-11-21T00:29:52;97797.97;;;9.77;100.00
9474;BME280;8865;47.636;7.692;2023-11-21T00:32:18;97796.72;;;9.81;100.00
9474;BME280;8865;47.636;7.692;2023-11-21T00:34:44;97796.44;;;9.84;100.00
9474;BME280;8865;47.636;7.692;2023-11-21T00:37:10;97793.69;;;9.86;100.00
9474;BME280;8865;47.636;7.692;2023-11-21T00:39:35;97791.50;;;9.91;100.00
9474;BME280;8865;47.636;7.692;2023-11-21T00:42:01;97804.72;;;9.89;100.00
9474;BME280;8865;47.636;7.692;2023-11-21T00:44:27;97800.72;;;9.75;100.00
9474;BME280;8865;47.636;7.692;2023-11-21T00:46:53;97798.94;;;9.76;100.00
9474;BME280;8865;47.636;7.692;2023-11-21T00:49:20;97794.78;;;9.73;100.00
9474;BME280;8865;47.636;7.692;2023-11-21T00:51:46;97800.28;;;9.70;100.00
9474;BME280;8865;47.636;7.692;2023-11-21T00:54:12;97794.53;;;9.57;100.00
9474;BME280;8865;47.636;7.692;2023-11-21T00:56:38;97796.19;;;9.48;100.00
9474;BME280;8865;47.636;7.692;2023-11-21T00:59:05;97798.78;;;9.48;100.00
9474;BME280;8865;47.636;7.692;2023-11-21T01:01:32;97799.06;;;9.55;100.00
9474;BME280;8865;47.636;7.692;2023-11-21T01:03:58;97805.53;;;9.60;100.00
9474;BME280;8865;47.636;7.692;2023-11-21T01:06:24;97812.97;;;9.55;100.00
9474;BME280;8865;47.636;7.692;2023-11-21T01:08:50;97808.00;;;9.62;100.00
9474;BME280;8865;47.636;7.692;2023-11-21T01:11:16;97803.34;;;9.56;100.00
9474;BME280;8865;47.636;7.692;2023-11-21T01:13:43;97793.97;;;9.53;100.00
9474;BME280;8865;47.636;7.692;2023-11-21T01:16:10;97796.59;;;9.53;100.00
9474;BME280;8865;47.636;7.692;2023-11-21T01:18:37;97804.72;;;9.60;100.00
9474;BME280;8865;47.636;7.692;2023-11-21T01:21:03;97796.75;;;9.61;100.00
9474;BME280;8865;47.636;7.692;2023-11-21T01:23:30;97812.97;;;9.65;100.00
9474;BME280;8865;47.636;7.692;2023-11-21T01:25:56;97814.34;;;9.69;100.00
9474;BME280;8865;47.636;7.692;2023-11-21T01:28:22;97805.13;;;9.65;100.00
9474;BME280;8865;47.636;7.692;2023-11-21T01:30:49;97804.31;;;9.64;100.00
9474;BME280;8865;47.636;7.692;2023-11-21T01:33:15;97807.19;;;9.71;100.00
9474;BME280;8865;47.636;7.692;2023-11-21T01:35:41;97809.38;;;9.76;100.00
9474;BME280;8865;47.636;7.692;2023-11-21T01:38:08;97809.94;;;9.79;100.00
9474;BME280;8865;47.636;7.692;2023-11-21T01:40:35;97818.47;;;9.81;100.00
9474;BME280;8865;47.636;7.692;2023-11-21T01:43:01;97812.28;;;9.82;100.00
9474;BME280;8865;47.636;7.692;2023-11-21T01:45:30;97814.34;;;9.79;100.00
9474;BME280;8865;47.636;7.692;2023-11-21T01:48:00;97816.97;;;9.79;100.00
9474;BME280;8865;47.636;7.692;2023-11-21T01:50:26;97819.44;;;9.80;100.00
9474;BME280;8865;47.636;7.692;2023-11-21T01:52:53;97807.44;;;9.78;100.00
9474;BME280;8865;47.636;7.692;2023-11-21T01:55:20;97814.88;;;9.82;100.00
9474;BME280;8865;47.636;7.692;2023-11-21T01:57:46;97812.13;;;9.84;100.00
9474;BME280;8865;47.636;7.692;2023-11-21T02:00:13;97803.31;;;9.85;100.00
9474;BME280;8865;47.636;7.692;2023-11-21T02:02:46;97799.63;;;9.88;100.00
9474;BME280;8865;47.636;7.692;2023-11-21T02:05:14;97798.78;;;9.87;100.00
9474;BME280;8865;47.636;7.692;2023-11-21T02:07:41;97798.91;;;9.86;100.00
9474;BME280;8865;47.636;7.692;2023-11-21T02:10:09;97804.28;;;9.84;100.00
9474;BME280;8865;47.636;7.692;2023-11-21T02:12:35;97807.88;;;9.83;100.00
9474;BME280;8865;47.636;7.692;2023-11-21T02:15:03;97804.84;;;9.78;100.00
9474;BME280;8865;47.636;7.692;2023-11-21T02:17:31;97801.53;;;9.76;100.00
9474;BME280;8865;47.636;7.692;2023-11-21T02:19:58;97794.25;;;9.79;100.00
9474;BME280;8865;47.636;7.692;2023-11-21T02:22:27;97796.84;;;9.79;100.00
9474;BME280;8865;47.636;7.692;2023-11-21T02:24:56;97795.22;;;9.78;100.00
9474;BME280;8865;47.636;7.692;2023-11-21T02:27:23;97808.16;;;9.80;100.00
9474;BME280;8865;47.636;7.692;2023-11-21T02:29:50;97795.91;;;9.80;100.00
9474;BME280;8865;47.636;7.692;2023-11-21T02:32:16;97791.47;;;9.81;100.00
9474;BME280;8865;47.636;7.692;2023-11-21T02:34:45;97794.09;;;9.81;100.00
9474;BME280;8865;47.636;7.692;2023-11-21T02:37:11;97789.84;;;9.80;100.00
9474;BME280;8865;47.636;7.692;2023-11-21T02:39:37;97786.09;;;9.82;100.00
9474;BME280;8865;47.636;7.692;2023-11-21T02:42:03;97781.72;;;9.83;100.00
9474;BME280;8865;47.636;7.692;2023-11-21T02:44:29;97776.34;;;9.75;100.00
9474;BME280;8865;47.636;7.692;2023-11-21T02:46:55;97770.84;;;9.68;100.00
9474;BME280;8865;47.636;7.692;2023-11-21T02:49:23;97776.91;;;9.69;100.00
9474;BME280;8865;47.636;7.692;2023-11-21T02:51:49;97780.22;;;9.71;100.00
9474;BME280;8865;47.636;7.692;2023-11-21T02:54:15;97777.34;;;9.74;100.00
9474;BME280;8865;47.636;7.692;2023-11-21T02:56:42;97787.09;;;9.72;100.00
9474;BME280;8865;47.636;7.692;2023-11-21T02:59:08;97784.31;;;9.73;100.00
9474;BME280;8865;47.636;7.692;2023-11-21T03:01:34;97776.22;;;9.76;100.00
9474;BME280;8865;47.636;7.692;2023-11-21T03:04:01;97781.84;;;9.72;100.00
9474;BME280;8865;47.636;7.692;2023-11-21T03:06:27;97782.13;;;9.69;100.00
9474;BME280;8865;47.636;7.692;2023-11-21T03:08:53;97773.06;;;9.73;100.00
9474;BME280;8865;47.636;7.692;2023-11-21T03:11:20;97772.25;;;9.72;100.00
9474;BME280;8865;47.636;7.692;2023-11-21T03:13:45;97776.34;;;9.75;100.00
9474;BME280;8865;47.636;7.692;2023-11-21T03:16:12;97773.59;;;9.76;100.00
9474;BME280;8865;47.636;7.692;2023-11-21T03:18:38;97770.97;;;9.76;100.00
9474;BME280;8865;47.636;7.692;2023-11-21T03:21:05;97763.84;;;9.78;100.00
9474;BME280;8865;47.636;7.692;2023-11-21T03:23:32;97764.78;;;9.77;100.00
9474;BME280;8865;47.636;7.692;2023-11-21T03:25:58;97766.59;;;9.77;100.00
9474;BME280;8865;47.636;7.692;2023-11-21T03:28:26;97765.88;;;9.75;100.00
9474;BME280;8865;47.636;7.692;2023-11-21T03:30:52;97770.03;;;9.77;100.00
9474;BME280;8865;47.636;7.692;2023-11-21T03:33:18;97764.25;;;9.74;100.00
9474;BME280;8865;47.636;7.692;2023-11-21T03:35:44;97764.66;;;9.79;100.00
9474;BME280;8865;47.636;7.692;2023-11-21T03:38:11;97768.38;;;9.76;100.00
9474;BME280;8865;47.636;7.692;2023-11-21T03:40:38;97773.31;;;9.79;100.00
9474;BME280;8865;47.636;7.692;2023-11-21T03:43:05;97766.03;;;9.73;100.00
9474;BME280;8865;47.636;7.692;2023-11-21T03:45:32;97777.59;;;9.71;100.00
9474;BME280;8865;47.636;7.692;2023-11-21T03:47:58;97783.13;;;9.68;100.00
9474;BME280;8865;47.636;7.692;2023-11-21T03:50:25;97782.97;;;9.59;100.00
9474;BME280;8865;47.636;7.692;2023-11-21T03:52:50;97788.06;;;9.61;100.00
9474;BME280;8865;47.636;7.692;2023-11-21T03:55:16;97789.31;;;9.67;100.00
9474;BME280;8865;47.636;7.692;2023-11-21T03:57:42;97786.28;;;9.61;100.00
9474;BME280;8865;47.636;7.692;2023-11-21T04:00:09;97782.41;;;9.46;100.00
9474;BME280;8865;47.636;7.692;2023-11-21T04:02:35;97788.19;;;9.50;100.00
9474;BME280;8865;47.636;7.692;2023-11-21T04:05:01;97781.31;;;9.48;100.00
9474;BME280;8865;47.636;7.692;2023-11-21T04:07:28;97775.94;;;9.50;100.00
9474;BME280;8865;47.636;7.692;2023-11-21T04:09:54;97777.88;;;9.48;100.00
9474;BME280;8865;47.636;7.692;2023-11-21T04:12:21;97777.03;;;9.47;100.00
9474;BME280;8865;47.636;7.692;2023-11-21T04:14:46;97781.44;;;9.47;100.00
9474;BME280;8865;47.636;7.692;2023-11-21T04:17:12;97790.53;;;9.53;100.00
9474;BME280;8865;47.636;7.692;2023-11-21T04:19:38;97789.28;;;9.47;100.00
9474;BME280;8865;47.636;7.692;2023-11-21T04:22:04;97781.84;;;9.42;100.00
9474;BME280;8865;47.636;7.692;2023-11-21T04:24:30;97778.66;;;9.29;100.00
9474;BME280;8865;47.636;7.692;2023-11-21T04:26:57;97782.94;;;9.30;100.00
9474;BME280;8865;47.636;7.692;2023-11-21T04:29:23;97787.91;;;9.43;100.00
9474;BME280;8865;47.636;7.692;2023-11-21T04:31:49;97791.91;;;9.47;100.00
9474;BME280;8865;47.636;7.692;2023-11-21T04:34:15;97789.84;;;9.41;100.00
9474;BME280;8865;47.636;7.692;2023-11-21T04:36:41;97787.63;;;9.46;100.00
9474;BME280;8865;47.636;7.692;2023-11-21T04:39:07;97787.63;;;9.46;100.00
9474;BME280;8865;47.636;7.692;2023-11-21T04:41:33;97789.56;;;9.44;100.00
9474;BME280;8865;47.636;7.692;2023-11-21T04:43:59;97783.38;;;9.45;100.00
9474;BME280;8865;47.636;7.692;2023-11-21T04:46:26;97795.91;;;9.51;100.00
9474;BME280;8865;47.636;7.692;2023-11-21T04:48:52;97789.31;;;9.57;100.00
9474;BME280;8865;47.636;7.692;2023-11-21T04:51:18;97796.72;;;9.52;100.00
9474;BME280;8865;47.636;7.692;2023-11-21T04:53:44;97791.34;;;9.53;100.00
9474;BME280;8865;47.636;7.692;2023-11-21T04:56:10;97800.19;;;9.52;100.00
9474;BME280;8865;47.636;7.692;2023-11-21T04:58:36;97785.28;;;9.43;100.00
9474;BME280;8865;47.636;7.692;2023-11-21T05:01:02;97784.19;;;9.45;100.00
9474;BME280;8865;47.636;7.692;2023-11-21T05:03:29;97793.97;;;9.53;100.00
9474;BME280;8865;47.636;7.692;2023-11-21T05:05:55;97791.50;;;9.42;100.00
9474;BME280;8865;47.636;7.692;2023-11-21T05:08:21;97798.09;;;9.36;100.00
9474;BME280;8865;47.636;7.692;2023-11-21T05:10:48;97785.97;;;9.25;100.00
9474;BME280;8865;47.636;7.692;2023-11-21T05:13:15;97788.72;;;9.24;100.00
9474;BME280;8865;47.636;7.692;2023-11-21T05:15:43;97789.00;;;9.30;100.00
9474;BME280;8865;47.636;7.692;2023-11-21T05:18:09;97797.22;;;9.26;100.00
9474;BME280;8865;47.636;7.692;2023-11-21T05:20:36;97804.53;;;9.32;100.00
9474;BME280;8865;47.636;7.692;2023-11-21T05:23:03;97796.28;;;9.27;100.00
9474;BME280;8865;47.636;7.692;2023-11-21T05:25:29;97801.09;;;9.32;100.00
9474;BME280;8865;47.636;7.692;2023-11-21T05:27:56;97813.75;;;9.36;100.00
9474;BME280;8865;47.636;7.692;2023-11-21T05:30:28;97807.56;;;9.27;100.00
9474;BME280;8865;47.636;7.692;2023-11-21T05:32:56;97809.06;;;9.30;100.00
9474;BME280;8865;47.636;7.692;2023-11-21T05:35:35;97804.94;;;9.27;100.00
9474;BME280;8865;47.636;7.692;2023-11-21T05:38:01;97814.31;;;9.30;100.00
9474;BME280;8865;47.636;7.692;2023-11-21T05:40:27;97821.06;;;9.33;100.00
9474;BME280;8865;47.636;7.692;2023-11-21T05:42:56;97820.22;;;9.32;100.00
9474;BME280;8865;47.636;7.692;2023-11-21T05:45:22;97821.06;;;9.33;100.00
9474;BME280;8865;47.636;7.692;2023-11-21T05:47:48;97824.91;;;9.38;100.00
9474;BME280;8865;47.636;7.692;2023-11-21T05:50:16;97832.88;;;9.37;100.00
9474;BME280;8865;47.636;7.692;2023-11-21T05:52:44;97831.25;;;9.36;100.00
9474;BME280;8865;47.636;7.692;2023-11-21T05:55:11;97831.78;;;9.29;100.00
9474;BME280;8865;47.636;7.692;2023-11-21T05:57:38;97835.06;;;9.32;100.00
9474;BME280;8865;47.636;7.692;2023-11-21T06:00:14;97843.47;;;9.35;100.00
9474;BME280;8865;47.636;7.692;2023-11-21T06:02:52;97836.34;;;9.37;100.00
9474;BME280;8865;47.636;7.692;2023-11-21T06:05:20;97836.06;;;9.40;100.00
9474;BME280;8865;47.636;7.692;2023-11-21T06:07:51;97837.44;;;9.44;100.00
9474;BME280;8865;47.636;7.692;2023-11-21T06:10:22;97845.97;;;9.46;100.00
9474;BME280;8865;47.636;7.692;2023-11-21T06:12:49;97851.06;;;9.48;100.00
9474;BME280;8865;47.636;7.692;2023-11-21T06:15:16;97852.03;;;9.47;100.00
9474;BME280;8865;47.636;7.692;2023-11-21T06:17:48;97856.03;;;9.51;100.00
9474;BME280;8865;47.636;7.692;2023-11-21T06:20:19;97858.22;;;9.56;100.00
9474;BME280;8865;47.636;7.692;2023-11-21T06:22:47;97864.56;;;9.53;100.00
9474;BME280;8865;47.636;7.692;2023-11-21T06:25:14;97860.31;;;9.52;100.00
9474;BME280;8865;47.636;7.692;2023-11-21T06:27:42;97852.59;;;9.51;100.00
9474;BME280;8865;47.636;7.692;2023-11-21T06:30:10;97852.03;;;9.47;100.00
9474;BME280;8865;47.636;7.692;2023-11-21T06:32:41;97859.31;;;9.43;100.00
9474;BME280;8865;47.636;7.692;2023-11-21T06:35:10;97862.06;;;9.42;100.00
9474;BME280;8865;47.636;7.692;2023-11-21T06:37:36;97860.69;;;9.38;100.00
9474;BME280;8865;47.636;7.692;2023-11-21T06:43:00;97864.50;;;9.24;100.00
9474;BME280;8865;47.636;7.692;2023-11-21T06:45:28;97866.28;;;9.23;100.00
9474;BME280;8865;47.636;7.692;2023-11-21T06:47:54;97870.13;;;9.19;100.00
9474;BME280;8865;47.636;7.692;2023-11-21T06:50:20;97876.75;;;9.23;100.00
9474;BME280;8865;47.636;7.692;2023-11-21T06:52:47;97871.78;;;9.20;100.00
9474;BME280;8865;47.636;7.692;2023-11-21T06:55:13;97882.78;;;9.24;100.00
9474;BME280;8865;47.636;7.692;2023-11-21T06:57:39;97883.59;;;9.24;100.00
9474;BME280;8865;47.636;7.692;2023-11-21T07:00:06;97885.78;;;9.19;100.00
9474;BME280;8865;47.636;7.692;2023-11-21T07:02:35;97888.16;;;9.22;100.00
9474;BME280;8865;47.636;7.692;2023-11-21T07:05:01;97896.41;;;9.27;100.00
9474;BME280;8865;47.636;7.692;2023-11-21T07:07:27;97895.97;;;9.22;100.00
9474;BME280;8865;47.636;7.692;2023-11-21T07:09:53;97895.84;;;9.24;100.00
9474;BME280;8865;47.636;7.692;2023-11-21T07:12:20;97897.91;;;9.20;100.00
9474;BME280;8865;47.636;7.692;2023-11-21T07:14:49;97900.13;;;9.25;100.00
9474;BME280;8865;47.636;7.692;2023-11-21T07:17:15;97905.38;;;9.35;100.00
9474;BME280;8865;47.636;7.692;2023-11-21T07:19:43;97904.84;;;9.41;100.00
9474;BME280;8865;47.636;7.692;2023-11-21T07:22:09;97908.00;;;9.44;100.00
9474;BME280;8865;47.636;7.692;2023-11-21T07:24:36;97915.84;;;9.44;100.00
9474;BME280;8865;47.636;7.692;2023-11-21T07:27:05;97906.78;;;9.48;100.00
9474;BME280;8865;47.636;7.692;2023-11-21T07:29:34;97915.03;;;9.44;100.00
9474;BME280;8865;47.636;7.692;2023-11-21T07:32:03;97915.44;;;9.39;100.00
9474;BME280;8865;47.636;7.692;2023-11-21T07:34:29;97911.28;;;9.37;100.00
9474;BME280;8865;47.636;7.692;2023-11-21T07:36:56;97908.66;;;9.37;100.00
9474;BME280;8865;47.636;7.692;2023-11-21T07:39:22;97921.19;;;9.43;100.00
9474;BME280;8865;47.636;7.692;2023-11-21T07:41:48;97921.78;;;9.46;100.00
9474;BME280;8865;47.636;7.692;2023-11-21T07:44:15;97917.50;;;9.36;100.00
9474;BME280;8865;47.636;7.692;2023-11-21T07:46:45;97913.06;;;9.26;100.00
9474;BME280;8865;47.636;7.692;2023-11-21T07:49:12;97919.13;;;9.37;100.00
9474;BME280;8865;47.636;7.692;2023-11-21T07:51:42;97922.72;;;9.45;100.00
9474;BME280;8865;47.636;7.692;2023-11-21T07:54:08;97926.47;;;9.53;100.00
9474;BME280;8865;47.636;7.692;2023-11-21T07:56:34;97927.28;;;9.53;100.00
9474;BME280;8865;47.636;7.692;2023-11-21T07:59:00;97917.97;;;9.60;100.00
9474;BME280;8865;47.636;7.692;2023-11-21T08:01:26;97910.00;;;9.72;100.00
9474;BME280;8865;47.636;7.692;2023-11-21T08:06:50;97905.59;;;9.92;100.00
9474;BME280;8865;47.636;7.692;2023-11-21T08:09:20;97905.63;;;10.11;100.00
9474;BME280;8865;47.636;7.692;2023-11-21T08:11:49;97912.25;;;10.45;100.00
9474;BME280;8865;47.636;7.692;2023-11-21T08:14:17;97907.06;;;10.82;100.00
9474;BME280;8865;47.636;7.692;2023-11-21T08:16:43;97907.03;;;11.30;100.00
9474;BME280;8865;47.636;7.692;2023-11-21T08:19:10;97895.88;;;11.73;100.00
9474;BME280;8865;47.636;7.692;2023-11-21T08:21:37;97884.06;;;12.05;100.00
9474;BME280;8865;47.636;7.692;2023-11-21T08:24:06;97878.66;;;12.25;100.00
9474;BME280;8865;47.636;7.692;2023-11-21T08:26:37;97885.66;;;12.42;100.00
9474;BME280;8865;47.636;7.692;2023-11-21T08:29:03;97885.81;;;12.41;100.00
9474;BME280;8865;47.636;7.692;2023-11-21T08:31:35;97885.72;;;12.50;100.00
9474;BME280;8865;47.636;7.692;2023-11-21T08:34:02;97878.63;;;12.43;100.00
9474;BME280;8865;47.636;7.692;2023-11-21T08:36:28;97885.09;;;12.12;100.00
9474;BME280;8865;47.636;7.692;2023-11-21T08:38:57;97893.31;;;11.82;100.00
9474;BME280;8865;47.636;7.692;2023-11-21T08:41:23;97901.34;;;11.80;100.00
9474;BME280;8865;47.636;7.692;2023-11-21T08:43:52;97892.66;;;12.33;100.00
9474;BME280;8865;47.636;7.692;2023-11-21T08:46:22;97892.22;;;13.68;100.00
9474;BME280;8865;47.636;7.692;2023-11-21T08:48:48;97893.44;;;14.47;100.00
9474;BME280;8865;47.636;7.692;2023-11-21T08:51:17;97888.47;;;15.33;100.00
9474;BME280;8865;47.636;7.692;2023-11-21T08:53:43;97884.38;;;15.54;100.00
9474;BME280;8865;47.636;7.692;2023-11-21T08:56:13;97885.09;;;15.08;100.00
9474;BME280;8865;47.636;7.692;2023-11-21T08:58:41;97892.28;;;14.50;100.00
9474;BME280;8865;47.636;7.692;2023-11-21T09:01:13;97893.13;;;14.18;100.00
9474;BME280;8865;47.636;7.692;2023-11-21T09:03:39;97899.78;;;13.71;100.00
9474;BME280;8865;47.636;7.692;2023-11-21T09:06:05;97900.47;;;13.30;100.00
9474;BME280;8865;47.636;7.692;2023-11-21T09:08:32;97910.81;;;12.97;100.00
9474;BME280;8865;47.636;7.692;2023-11-21T09:10:58;97914.81;;;12.57;100.00
9474;BME280;8865;47.636;7.692;2023-11-21T09:13:24;97929.50;;;12.42;100.00
9474;BME280;8865;47.636;7.692;2023-11-21T09:15:51;97928.47;;;12.17;100.00
9474;BME280;8865;47.636;7.692;2023-11-21T09:18:17;97931.78;;;11.91;100.00
9474;BME280;8865;47.636;7.692;2023-11-21T09:20:43;97930.13;;;11.72;100.00
9474;BME280;8865;47.636;7.692;2023-11-21T09:23:12;97935.63;;;11.51;100.00
9474;BME280;8865;47.636;7.692;2023-11-21T09:25:38;97932.44;;;11.47;100.00
9474;BME280;8865;47.636;7.692;2023-11-21T09:28:05;97937.13;;;11.53;100.00
9474;BME280;8865;47.636;7.692;2023-11-21T09:30:34;97941.16;;;11.75;100.00
9474;BME280;8865;47.636;7.692;2023-11-21T09:33:02;97930.78;;;12.02;100.00
9474;BME280;8865;47.636;7.692;2023-11-21T09:35:28;97932.41;;;12.39;100.00
9474;BME280;8865;47.636;7.692;2023-11-21T09:37:54;97919.59;;;12.80;100.00
9474;BME280;8865;47.636;7.692;2023-11-21T09:40:22;97924.66;;;13.34;100.00
9474;BME280;8865;47.636;7.692;2023-11-21T09:42:55;97918.59;;;13.92;100.00
9474;BME280;8865;47.636;7.692;2023-11-21T09:45:27;97923.72;;;14.60;100.00
9474;BME280;8865;47.636;7.692;2023-11-21T09:47:58;97924.53;;;14.93;100.00
9474;BME280;8865;47.636;7.692;2023-11-21T09:50:25;97933.78;;;15.37;100.00
9474;BME280;8865;47.636;7.692;2023-11-21T09:55:42;97931.66;;;15.80;100.00
9474;BME280;8865;47.636;7.692;2023-11-21T09:58:08;97926.25;;;15.26;100.00
9474;BME280;8865;47.636;7.692;2023-11-21T10:00:42;97935.78;;;14.71;100.00
9474;BME280;8865;47.636;7.692;2023-11-21T10:03:09;97934.28;;;14.35;100.00
9474;BME280;8865;47.636;7.692;2023-11-21T10:05:36;97931.75;;;13.92;100.00
9474;BME280;8865;47.636;7.692;2023-11-21T10:08:08;97930.66;;;13.52;100.00
9474;BME280;8865;47.636;7.692;2023-11-21T10:10:37;97928.97;;;13.09;100.00
9474;BME280;8865;47.636;7.692;2023-11-21T10:13:06;97933.69;;;12.79;100.00
9474;BME280;8865;47.636;7.692;2023-11-21T10:15:34;97935.84;;;12.57;100.00
9474;BME280;8865;47.636;7.692;2023-11-21T10:18:02;97936.31;;;12.35;100.00
9474;BME280;8865;47.636;7.692;2023-11-21T10:20:30;97940.59;;;12.18;100.00
9474;BME280;8865;47.636;7.692;2023-11-21T10:22:56;97942.41;;;11.99;100.00
9474;BME280;8865;47.636;7.692;2023-11-21T10:25:22;97949.25;;;11.82;100.00
9474;BME280;8865;47.636;7.692;2023-11-21T10:27:57;97942.69;;;11.68;100.00
9474;BME280;8865;47.636;7.692;2023-11-21T10:30:28;97951.38;;;11.51;100.00
9474;BME280;8865;47.636;7.692;2023-11-21T10:32:59;97948.03;;;11.49;100.00
9474;BME280;8865;47.636;7.692;2023-11-21T10:35:47;97941.91;;;11.40;100.00
9474;BME280;8865;47.636;7.692;2023-11-21T10:38:25;97938.44;;;11.39;100.00
9474;BME280;8865;47.636;7.692;2023-11-21T10:40:56;97937.47;;;11.40;100.00
9474;BME280;8865;47.636;7.692;2023-11-21T10:43:25;97941.25;;;11.28;100.00
9474;BME280;8865;47.636;7.692;2023-11-21T10:45:57;97934.50;;;11.25;100.00
9474;BME280;8865;47.636;7.692;2023-11-21T10:51:14;97938.78;;;11.26;100.00
9474;BME280;8865;47.636;7.692;2023-11-21T10:53:40;97949.69;;;11.22;100.00
9474;BME280;8865;47.636;7.692;2023-11-21T10:56:13;97940.31;;;11.19;100.00
9474;BME280;8865;47.636;7.692;2023-11-21T10:58:43;97941.31;;;11.08;100.00
9474;BME280;8865;47.636;7.692;2023-11-21T11:01:10;97941.44;;;11.07;100.00
9474;BME280;8865;47.636;7.692;2023-11-21T11:03:41;97943.94;;;11.08;100.00
9474;BME280;8865;47.636;7.692;2023-11-21T11:06:08;97944.63;;;11.11;100.00
9474;BME280;8865;47.636;7.692;2023-11-21T11:08:38;97950.59;;;11.03;100.00
9474;BME280;8865;47.636;7.692;2023-11-21T11:11:09;97947.84;;;10.95;100.00
9474;BME280;8865;47.636;7.692;2023-11-21T11:13:37;97955.69;;;10.95;100.00
9474;BME280;8865;47.636;7.692;2023-11-21T11:16:04;97961.66;;;10.97;100.00
9474;BME280;8865;47.636;7.692;2023-11-21T11:18:34;97963.03;;;10.91;100.00
9474;BME280;8865;47.636;7.692;2023-11-21T11:21:24;97962.50;;;10.87;100.00
9474;BME280;8865;47.636;7.692;2023-11-21T11:24:16;97956.28;;;10.79;100.00
9474;BME280;8865;47.636;7.692;2023-11-21T11:27:11;97956.59;;;10.66;100.00
9474;BME280;8865;47.636;7.692;2023-11-21T11:35:54;97967.06;;;10.76;100.00
9474;BME280;8865;47.636;7.692;2023-11-21T11:38:23;97964.16;;;10.79;100.00
9474;BME280;8865;47.636;7.692;2023-11-21T11:40:52;97966.09;;;10.77;100.00
9474;BME280;8865;47.636;7.692;2023-11-21T11:43:26;97969.69;;;10.76;100.00
9474;BME280;8865;47.636;7.692;2023-11-21T11:45:56;97978.78;;;10.71;100.00
9474;BME280;8865;47.636;7.692;2023-11-21T11:48:23;97974.09;;;10.65;100.00
9474;BME280;8865;47.636;7.692;2023-11-21T11:51:12;97975.50;;;10.60;100.00
9474;BME280;8865;47.636;7.692;2023-11-21T11:53:48;97980.88;;;10.58;100.00
9474;BME280;8865;47.636;7.692;2023-11-21T11:58:56;97978.91;;;10.50;100.00
9474;BME280;8865;47.636;7.692;2023-11-21T12:01:25;97983.34;;;10.50;100.00
9474;BME280;8865;47.636;7.692;2023-11-21T12:06:37;97988.03;;;10.36;100.00
9474;BME280;8865;47.636;7.692;2023-11-21T12:09:06;97996.84;;;10.35;100.00
9474;BME280;8865;47.636;7.692;2023-11-21T12:11:32;97995.31;;;10.43;100.00
9474;BME280;8865;47.636;7.692;2023-11-21T12:14:02;98004.69;;;10.45;100.00
9474;BME280;8865;47.636;7.692;2023-11-21T12:16:32;97994.91;;;10.38;100.00
9474;BME280;8865;47.636;7.692;2023-11-21T12:18:59;97997.25;;;10.50;100.00
9474;BME280;8865;47.636;7.692;2023-11-21T12:21:25;97995.47;;;10.61;100.00
9474;BME280;8865;47.636;7.692;2023-11-21T12:23:55;98002.38;;;10.62;100.00
9474;BME280;8865;47.636;7.692;2023-11-21T12:26:24;97992.84;;;10.61;100.00
9474;BME280;8865;47.636;7.692;2023-11-21T12:28:54;98004.72;;;10.55;100.00
9474;BME280;8865;47.636;7.692;2023-11-21T12:31:23;97997.53;;;10.47;100.00
9474;BME280;8865;47.636;7.692;2023-11-21T12:33:58;97992.16;;;10.49;100.00
9474;BME280;8865;47.636;7.692;2023-11-21T12:36:24;98003.88;;;10.54;100.00
9474;BME280;8865;47.636;7.692;2023-11-21T12:38:52;98004.16;;;10.51;100.00
9474;BME280;8865;47.636;7.692;2023-11-21T12:41:24;98006.50;;;10.45;100.00
9474;BME280;8865;47.636;7.692;2023-11-21T12:43:58;98008.72;;;10.49;100.00
9474;BME280;8865;47.636;7.692;2023-11-21T12:46:25;98012.16;;;10.50;100.00
9474;BME280;8865;47.636;7.692;2023-11-21T12:48:55;97999.72;;;10.32;100.00
9474;BME280;8865;47.636;7.692;2023-11-21T12:51:27;98006.72;;;10.32;100.00
9474;BME280;8865;47.636;7.692;2023-11-21T12:53:56;98005.81;;;10.33;100.00
9474;BME280;8865;47.636;7.692;2023-11-21T12:56:28;98001.81;;;10.48;100.00
9474;BME280;8865;47.636;7.692;2023-11-21T12:58:54;97999.31;;;10.76;100.00
9474;BME280;8865;47.636;7.692;2023-11-21T13:01:28;97995.00;;;10.95;100.00
9474;BME280;8865;47.636;7.692;2023-11-21T13:03:57;97991.66;;;11.12;100.00
9474;BME280;8865;47.636;7.692;2023-11-21T13:06:24;97983.72;;;11.32;100.00
9474;BME280;8865;47.636;7.692;2023-11-21T13:08:52;97987.09;;;11.52;100.00
9474;BME280;8865;47.636;7.692;2023-11-21T13:11:23;97984.94;;;11.75;100.00
9474;BME280;8865;47.636;7.692;2023-11-21T13:13:54;97981.41;;;11.94;100.00
9474;BME280;8865;47.636;7.692;2023-11-21T13:16:20;97975.75;;;11.89;100.00
9474;BME280;8865;47.636;7.692;2023-11-21T13:18:52;97984.06;;;11.84;100.00
9474;BME280;8865;47.636;7.692;2023-11-21T13:21:18;97983.91;;;11.86;100.00
9474;BME280;8865;47.636;7.692;2023-11-21T13:23:45;97991.34;;;11.90;100.00
9474;BME280;8865;47.636;7.692;2023-11-21T13:26:12;97984.19;;;11.83;100.00
9474;BME280;8865;47.636;7.692;2023-11-21T13:28:38;97986.19;;;11.71;100.00
9474;BME280;8865;47.636;7.692;2023-11-21T13:31:07;97993.09;;;11.72;100.00
9474;BME280;8865;47.636;7.692;2023-11-21T13:33:47;97997.06;;;11.48;100.00
9474;BME280;8865;47.636;7.692;2023-11-21T13:36:22;97992.91;;;11.46;100.00
9474;BME280;8865;47.636;7.692;2023-11-21T13:38:50;97988.25;;;11.39;100.00
9474;BME280;8865;47.636;7.692;2023-11-21T13:41:18;97995.81;;;11.42;100.00
9474;BME280;8865;47.636;7.692;2023-11-21T13:43:46;97995.19;;;11.31;100.00